Latest Coastal Weather Observations for Broome

IDW60701

Issued at 12:35 am WST Thursday 21 August 2014 (issued every 10 minutes, with the page automatically refreshed every 10 minutes)

About coastal observations | Map of coastal stations | Coastal observations for WA | Marine services | Other Formats
Station Details ID: 003003 Name: BROOME AIRPORT Lat: -17.95 Lon: 122.24 Height: 7.42 m
Data from the previous 72 hours. | See also: Recent months at Broome
Date/Time
WST
Temp

°C
Wind Pressure Rain
since 9am
mm
Weather Cloud Vis
km
Sea
Height
m
Swell
Dir
 
Speed
knots
Gust
knots
hPa Trend Height
m
Period
s
Dir
21/12:30am 12.7 N 0 0 1014.9 - 0.0 - - 2 - - - -
21/12:27am 12.5 N 0 0 1014.9 - 0.0 - - 1 - - - -
21/12:20am 12.7 N 0 0 1015.0 - 0.0 - - 0.9 - - - -
21/12:15am 12.6 CALM 0 - 1015.0 - 0.0 - - 5 - - - -
21/12:00am 12.7 N 0 0 1015.0 - 0.0 - - 10 - - - -
 
Date/Time
WST
Temp

°C
Wind Pressure Rain
since 9am
mm
Weather Cloud Vis
km
Sea
Height
m
Swell
Dir
 
Speed
knots
Gust
knots
hPa Trend Height
m
Period
s
Dir
20/11:30pm 13.2 CALM 0 0 1015.2 - 0.0 - - 10 - - - -
20/11:00pm 14.5 CALM 0 0 1015.3 - 0.0 - - 10 - - - -
20/10:30pm 13.9 CALM 0 3 1015.4 - 0.0 - - 10 - - - -
20/10:00pm 14.4 N 3 5 1015.4 - 0.0 - - 10 - - - -
20/09:30pm 15.5 CALM 0 0 1015.5 - 0.0 - - 10 - - - -
20/09:00pm 16.9 WNW 3 5 1015.4 R 0.0 Haze Clear 30 - - - -
20/08:30pm 17.8 N 2 4 1015.3 - 0.0 - - 10 - - - -
20/08:00pm 17.1 CALM 0 0 1015.2 - 0.0 - - 10 - - - -
20/07:30pm 17.8 CALM 0 1 1014.8 - 0.0 - - 10 - - - -
20/07:00pm 18.6 NNW 1 4 1014.5 - 0.0 - - 10 - - - -
20/06:30pm 20.1 NW 4 5 1013.9 - 0.0 - - 10 - - - -
20/06:00pm 22.0 WSW 5 7 1013.6 F 0.0 Smoke Clear 40 - - - -
20/05:30pm 22.4 WNW 5 7 1013.7 - 0.0 - - 10 - - - -
20/05:00pm 24.0 WNW 7 11 1013.5 - 0.0 - - 10 - - - -
20/04:30pm 26.9 SW 8 12 1013.0 - 0.0 - - 10 - - - -
20/04:00pm 28.4 SW 9 12 1012.9 - 0.0 - - 10 - - - -
20/03:30pm 29.5 SW 9 12 1012.8 - 0.0 - - 10 - - - -
20/03:00pm 30.3 SSW 11 13 1012.7 F 0.0 Smoke Clear 30 - - - -
20/02:30pm 30.9 S 8 11 1012.9 - 0.0 - - 10 - - - -
20/02:00pm 30.9 S 9 12 1013.2 - 0.0 - - 10 - - - -
20/01:30pm 31.0 SSE 7 11 1013.6 - 0.0 - - 10 - - - -
20/01:00pm 30.7 SSE 7 10 1014.0 - 0.0 - - 10 - - - -
20/12:30pm 30.3 SSE 8 11 1014.6 - 0.0 - - 10 - - - -
20/12:00pm 30.1 SE 8 11 1015.0 F 0.0 Smoke Clear 30 - - - -
20/11:30am 29.9 E 7 10 1015.6 - 0.0 - - 10 - - - -
20/11:00am 28.5 ESE 7 11 1016.1 - 0.0 - - 10 - - - -
20/10:30am 25.9 SE 5 7 1016.6 - 0.0 - - 10 - - - -
20/10:00am 23.4 SE 7 9 1016.9 - 0.0 - - 10 - - - -
20/09:30am 22.8 SE 7 8 1017.0 - 0.0 - - 10 - - - -
20/09:11am 21.8 SE 7 - 1017.1 F 0.0 Smoke Clear 30 - - - -
20/09:00am 21.8 SE 7 9 1017.1 F 0.0 Smoke Clear 30 - - - -
20/08:30am 20.8 SSE 8 11 1016.9 - 0.0 - - 10 - - - -
20/08:00am 19.8 SE 8 12 1016.8 - 0.0 - - 10 - - - -
20/07:30am 18.1 SE 6 8 1016.5 - 0.0 - - 10 - - - -
20/07:00am 16.4 SE 5 7 1016.2 - 0.0 - - 10 - - - -
20/06:57am 15.4 SE 5 7 1016.2 - 0.0 - - 10 - - - -
20/06:30am 10.3 ESE 3 4 1016.2 - 0.0 - Mostly clear 10 - - - -
20/06:08am 9.8 ENE 2 5 1016.2 - 0.0 Shallow fog Mostly clear 8 - - - -
20/06:00am 10.2 CALM 0 - 1016.0 R 0.0 Fog Mostly cloudy 0.7 - - - -
20/05:38am 10.8 CALM 0 0 1015.9 - 0.0 Fog Cloudy 0.3 - - - -
20/05:30am 10.8 CALM 0 0 1015.7 - 0.0 - Mostly cloudy 4 - - - -
20/05:17am 10.8 CALM 0 0 1015.6 - 0.0 - Partly cloudy 10 - - - -
20/05:00am 10.9 CALM 0 0 1015.4 - 0.0 - - 10 - - - -
20/04:30am 11.3 CALM 0 0 1015.1 - 0.0 - - 10 - - - -
20/04:00am 12.2 CALM 0 0 1014.9 - 0.0 - - 10 - - - -
20/03:30am 12.3 CALM 0 0 1015.0 - 0.0 - - 10 - - - -
20/03:00am 12.7 CALM 0 0 1014.9 - 0.0 - - 10 - - - -
20/02:59am 12.8 CALM 0 0 1015.0 - 0.0 - - 10 - - - -
20/02:35am 12.9 CALM 0 - 1015.2 - 0.0 - - 4 - - - -
20/02:30am 12.7 CALM 0 0 1015.2 - 0.0 - - 10 - - - -
20/02:00am 13.1 CALM 0 0 1015.3 - 0.0 - - 10 - - - -
20/01:51am 12.6 CALM 0 0 1015.4 - 0.0 - - 10 - - - -
20/01:37am 12.8 N 1 3 1015.6 - 0.0 - - 6 - - - -
20/01:30am 13.0 CALM 0 0 1015.7 - 0.0 - - 8 - - - -
20/01:00am 12.6 N 4 5 1015.8 - 0.0 - - 10 - - - -
20/12:30am 12.7 CALM 0 0 1015.9 - 0.0 - - 10 - - - -
20/12:00am 13.5 CALM 0 0 1016.0 - 0.0 - - 10 - - - -
 
Date/Time
WST
Temp

°C
Wind Pressure Rain
since 9am
mm
Weather Cloud Vis
km
Sea
Height
m
Swell
Dir
 
Speed
knots
Gust
knots
hPa Trend Height
m
Period
s
Dir
19/11:30pm 14.3 NNW 2 4 1016.4 - 0.0 - - 10 - - - -
19/11:05pm 13.5 CALM 0 0 1016.6 - 0.0 - - 10 - - - -
19/11:00pm 13.6 CALM 0 0 1016.6 - 0.0 - - 10 - - - -
19/10:50pm 13.8 CALM 0 - 1016.8 - 0.0 - Partly cloudy 1 - - - -
19/10:31pm 13.8 CALM 0 - 1016.8 - 0.0 - Partly cloudy 0.8 - - - -
19/10:30pm 13.7 CALM 0 - 1016.8 - 0.0 - Partly cloudy 2 - - - -
19/10:12pm 14.4 CALM 0 0 1016.8 - 0.0 - - 6 - - - -
19/10:00pm 14.6 CALM 0 0 1016.7 - 0.0 - - 10 - - - -
19/09:30pm 15.1 CALM 0 0 1016.7 - 0.0 - - 10 - - - -
19/09:00pm 16.0 CALM 0 0 1016.5 R 0.0 Haze Clear 25 - - - -
19/08:30pm 17.5 CALM 0 0 1016.4 - 0.0 - - 10 - - - -
19/08:00pm 16.4 CALM 0 0 1016.2 - 0.0 - - 10 - - - -
19/07:30pm 17.3 N 3 5 1015.8 - 0.0 - - 10 - - - -
19/07:00pm 18.9 NNW 2 4 1015.5 - 0.0 - - 10 - - - -
19/06:30pm 18.9 N 3 5 1015.0 - 0.0 - - 10 - - - -
19/06:00pm 20.8 WNW 3 4 1014.6 F 0.0 Smoke Clear 40 - - - -
19/05:30pm 22.2 W 5 7 1014.4 - 0.0 - - 10 - - - -
19/05:00pm 23.7 WNW 8 10 1014.2 - 0.0 - - 10 - - - -
19/04:30pm 24.9 W 8 11 1014.1 - 0.0 - - 10 - - - -
19/04:00pm 26.0 W 10 13 1013.9 - 0.0 - - 10 - - - -
19/03:30pm 28.4 WSW 9 11 1013.8 - 0.0 - - 10 - - - -
19/03:00pm 29.1 W 8 11 1013.9 R 0.0 Haze Clear 30 - - - -
19/02:30pm 29.7 WSW 8 11 1014.0 - 0.0 - - 10 - - - -
19/02:00pm 29.6 W 7 9 1014.0 - 0.0 - - 10 - - - -
19/01:30pm 29.8 WSW 5 9 1014.2 - 0.0 - - 10 - - - -
19/01:00pm 29.7 SSE 7 10 1015.0 - 0.0 - - 10 - - - -
19/12:30pm 29.6 SSE 7 11 1015.4 - 0.0 - - 10 - - - -
19/12:00pm 29.9 SE 9 13 1015.8 - 0.0 - - 10 - - - -
19/11:30am 28.2 ESE 9 12 1016.6 - 0.0 - - 10 - - - -
19/11:00am 26.8 SE 7 11 1017.0 - 0.0 - - 10 - - - -
19/10:30am 25.0 SE 8 11 1017.4 - 0.0 - - 10 - - - -
19/10:00am 22.7 SE 7 11 1018.0 - 0.0 - - 10 - - - -
19/09:30am 22.7 SE 5 7 1018.2 - 0.0 - - 10 - - - -
19/09:00am 21.2 ESE 4 6 1018.1 - 0.0 - - 10 - - - -
19/08:30am 19.6 E 4 5 1018.2 - 0.0 - - 10 - - - -
19/08:00am 16.4 ENE 3 4 1018.1 - 0.0 - - 10 - - - -
19/07:30am 14.1 ENE 3 4 1017.9 - 0.0 - - 10 - - - -
19/07:00am 11.7 NNE 1 3 1017.6 - 0.0 - - 10 - - - -
19/06:30am 10.5 CALM 0 0 1017.1 - 0.0 - - 10 - - - -
19/06:00am 9.7 CALM 0 2 1016.9 F 0.0 Distant fog Clear 40 - - - -
19/05:30am 9.3 N 4 5 1016.8 - 0.0 - - 10 - - - -
19/05:12am 9.3 NNE 3 4 1016.8 - 0.0 - - 1 - - - -
19/05:09am 9.4 NNE 3 4 1016.8 - 0.0 - - 0.9 - - - -
19/05:00am 9.8 NNE 4 5 1016.7 - 0.0 - - 3 - - - -
19/04:57am 9.9 NNE 4 5 1016.7 - 0.0 - - 6 - - - -
19/04:30am 10.7 ENE 3 7 1016.5 - 0.0 - - 10 - - - -
19/04:00am 12.3 CALM 0 0 1016.5 - 0.0 - - 10 - - - -
19/03:30am 11.4 CALM 0 0 1016.5 - 0.0 - - 10 - - - -
19/03:00am 10.6 NE 2 4 1016.4 - 0.0 - - 10 - - - -
19/02:30am 10.8 N 3 6 1016.5 - 0.0 - - 10 - - - -
19/02:00am 11.9 W 5 5 1016.5 - 0.0 - - 10 - - - -
19/01:30am 14.8 WNW 1 4 1016.7 - 0.0 - - 10 - - - -
19/01:00am 17.4 W 7 9 1017.0 - 0.0 - - 10 - - - -
19/12:30am 15.3 W 4 6 1017.3 - 0.0 - - 10 - - - -
19/12:00am 12.4 WNW 3 5 1017.6 - 0.0 - - 10 - - - -
 
Date/Time
WST
Temp

°C
Wind Pressure Rain
since 9am
mm
Weather Cloud Vis
km
Sea
Height
m
Swell
Dir
 
Speed
knots
Gust
knots
hPa Trend Height
m
Period
s
Dir
18/11:30pm 12.8 CALM 0 0 1017.9 - 0.0 - - 10 - - - -
18/11:00pm 13.5 CALM 0 0 1018.0 - 0.0 - - 10 - - - -
18/10:30pm 14.1 CALM 0 0 1018.1 - 0.0 - - 10 - - - -
18/10:00pm 13.8 N 4 4 1017.9 - 0.0 - - 10 - - - -
18/09:30pm 14.1 N 1 6 1017.8 - 0.0 - - 10 - - - -
18/09:00pm 15.3 NNW 2 4 1017.6 R 0.0 Smoke Clear 40 - - - -
18/08:30pm 19.4 WSW 5 6 1017.5 - 0.0 - - 10 - - - -
18/08:00pm 20.2 W 6 7 1017.2 - 0.0 - - 10 - - - -
18/07:30pm 19.9 W 4 5 1017.0 - 0.0 - - 10 - - - -
18/07:00pm 20.3 WNW 5 6 1016.1 - 0.0 - - 10 - - - -
18/06:30pm 21.3 NW 5 7 1016.0 - 0.0 - - 10 - - - -
18/06:00pm 21.8 NW 8 12 1015.5 R 0.0 Smoke Clear 40 - - - -
18/05:30pm 23.0 NNW 8 11 1015.4 - 0.0 - - 10 - - - -
18/05:00pm 24.8 WNW 9 12 1015.0 - 0.0 - - 10 - - - -
18/04:30pm 28.5 SW 11 13 1014.5 - 0.0 - - 10 - - - -
18/04:00pm 29.2 SW 11 13 1014.3 - 0.0 - - 10 - - - -
18/03:30pm 29.8 SSW 9 12 1014.2 - 0.0 - - 10 - - - -
18/03:00pm 30.1 SW 11 14 1014.1 S 0.0 Smoke Clear 40 - - - -
18/02:30pm 29.7 S 9 13 1014.4 - 0.0 - - 10 - - - -
18/02:00pm 29.6 S 9 12 1014.6 - 0.0 - - 10 - - - -
18/01:30pm 29.2 S 7 9 1015.0 - 0.0 - - 10 - - - -
18/01:00pm 29.2 SE 8 12 1015.4 - 0.0 - - 10 - - - -
18/12:30pm 29.5 SE 8 12 1015.8 - 0.0 - - 10 - - - -
18/12:00pm 29.0 ESE 9 12 1016.2 F 0.0 Smoke Clear 40 - - - -
18/11:30am 28.2 SE 8 13 1016.8 - 0.0 - - 10 - - - -
18/11:00am 28.1 E 11 15 1017.2 - 0.0 - - 10 - - - -
18/10:30am 27.6 E 10 13 1017.8 - 0.0 - - 10 - - - -
18/10:00am 26.4 ESE 10 15 1018.0 - 0.0 - - 10 - - - -
18/09:30am 24.3 ESE 8 11 1018.4 - 0.0 - - 10 - - - -
18/09:00am 21.0 ESE 7 9 1018.6 S 0.0 Smoke Clear 40 - - - -
18/08:30am 18.8 ESE 8 10 1018.7 - 0.0 - - 10 - - - -
18/08:00am 17.3 ESE 7 9 1018.6 - 0.0 - - 10 - - - -
18/07:30am 15.8 ESE 5 7 1018.4 - 0.0 - - 10 - - - -
18/07:00am 13.6 ESE 6 7 1018.2 - 0.0 - - 10 - - - -
18/06:30am 11.3 ESE 5 6 1017.9 - 0.0 - - 10 - - - -
18/06:00am 10.3 ESE 4 5 1017.4 F 0.0 Smoke Clear 40 - - - -
18/05:30am 9.0 E 5 5 1017.2 - 0.0 - - 10 - - - -
18/05:00am 9.8 ESE 4 4 1016.9 - 0.0 - - 10 - - - -
18/04:30am 9.6 ESE 4 5 1016.9 - 0.0 - - 10 - - - -
18/04:00am 10.8 ESE 5 6 1016.8 - 0.0 - - 10 - - - -
18/03:30am 9.6 ESE 5 6 1016.8 - 0.0 - - 10 - - - -
18/03:00am 8.7 ESE 4 5 1016.7 - 0.0 - - 10 - - - -
18/02:30am 9.7 SE 3 4 1016.9 - 0.0 - - 10 - - - -
18/02:00am 9.8 SE 4 5 1016.9 - 0.0 - - 10 - - - -
18/01:30am 9.6 SE 3 5 1017.0 - 0.0 - - 10 - - - -
18/01:00am 11.8 CALM 0 0 1017.1 - 0.0 - - 10 - - - -

Other Formats:

Comma delimited format used in spreadsheet applications
http://www.bom.gov.au/fwo/IDW60701/IDW60701.94203.axf

JavaScript Object Notation format (JSON) in row-major order
http://www.bom.gov.au/fwo/IDW60701/IDW60701.94203.json